createdAt,value
2023-01-17T00:01:29.468Z,98526.53
2023-01-17T00:04:14.226Z,98530.81
2023-01-17T00:06:58.900Z,98544.34
2023-01-17T00:09:44.370Z,98544.34
2023-01-17T00:12:10.769Z,98549.38
2023-01-17T00:14:37.194Z,98552.03
2023-01-17T00:17:03.682Z,98554.63
2023-01-17T00:19:48.690Z,98554.63
2023-01-17T00:22:42.075Z,98557.22
2023-01-17T00:25:31.985Z,98567.41
2023-01-17T00:28:01.423Z,98571.66
2023-01-17T00:30:30.959Z,98574.19
2023-01-17T00:33:00.377Z,98574.31
2023-01-17T00:35:32.127Z,98579.38
2023-01-17T00:38:05.564Z,98579.50
2023-01-17T00:40:36.748Z,98586.28
2023-01-17T00:43:22.035Z,98592.25
2023-01-17T00:46:07.880Z,98604.34
2023-01-17T00:48:53.626Z,98606.66
2023-01-17T00:51:39.466Z,98620.75
2023-01-17T00:54:25.163Z,98630.63
2023-01-17T00:57:10.947Z,98627.75
2023-01-17T00:59:56.250Z,98634.00
2023-01-17T01:02:41.525Z,98632.38
2023-01-17T01:05:27.320Z,98631.72
2023-01-17T01:08:11.924Z,98627.50
2023-01-17T01:10:57.213Z,98620.78
2023-01-17T01:13:44.515Z,98632.50
2023-01-17T01:16:29.726Z,98634.97
2023-01-17T01:19:15.174Z,98639.97
2023-01-17T01:22:00.296Z,98654.22
2023-01-17T01:24:45.497Z,98647.41
2023-01-17T01:27:30.844Z,98656.59
2023-01-17T01:30:16.184Z,98658.94
2023-01-17T01:33:01.427Z,98663.19
2023-01-17T01:35:27.986Z,98669.94
2023-01-17T01:37:54.358Z,98675.00
2023-01-17T01:40:21.380Z,98671.69
2023-01-17T01:42:52.423Z,98676.88
2023-01-17T01:45:25.257Z,98680.44
2023-01-17T01:47:57.532Z,98679.72
2023-01-17T01:50:24.151Z,98684.13
2023-01-17T01:52:55.989Z,98683.50
2023-01-17T01:55:31.933Z,98690.34
2023-01-17T01:58:03.963Z,98696.31
2023-01-17T02:00:35.100Z,98691.44
2023-01-17T02:03:14.952Z,98696.63
2023-01-17T02:05:43.550Z,98697.53
2023-01-17T02:08:15.925Z,98703.47
2023-01-17T02:10:44.086Z,98715.28
2023-01-17T02:13:11.630Z,98726.31
2023-01-17T02:16:15.542Z,98747.25
2023-01-17T02:19:03.707Z,98754.00
2023-01-17T02:21:45.116Z,98766.66
2023-01-17T02:24:14.351Z,98762.53
2023-01-17T02:26:52.923Z,98757.72
2023-01-17T02:29:31.460Z,98772.00
2023-01-17T02:32:10.359Z,98763.56
2023-01-17T02:35:04.763Z,98761.78
2023-01-17T02:37:44.115Z,98757.56
2023-01-17T02:40:18.998Z,98758.31
2023-01-17T02:42:57.993Z,98753.31
2023-01-17T02:45:24.417Z,98763.31
2023-01-17T02:47:50.771Z,98761.75
2023-01-17T02:50:21.810Z,98766.84
2023-01-17T02:53:09.034Z,98773.50
2023-01-17T02:55:52.293Z,98772.66
2023-01-17T02:58:37.299Z,98773.59
2023-01-17T03:01:10.890Z,98766.84
2023-01-17T03:04:00.460Z,98779.47
2023-01-17T03:06:32.628Z,98782.00
2023-01-17T03:08:59.098Z,98780.28
2023-01-17T03:11:27.154Z,98782.91
2023-01-17T03:13:57.568Z,98774.63
2023-01-17T03:16:26.400Z,98778.03
2023-01-17T03:18:53.862Z,98788.09
2023-01-17T03:21:21.672Z,98785.56
2023-01-17T03:23:48.115Z,98788.03
2023-01-17T03:26:15.094Z,98788.84
2023-01-17T03:28:41.668Z,98794.66
2023-01-17T03:31:08.322Z,98795.50
2023-01-17T03:33:35.478Z,98796.38
2023-01-17T03:36:01.846Z,98805.53
2023-01-17T03:38:29.328Z,98803.97
2023-01-17T03:40:55.838Z,98807.31
2023-01-17T03:43:22.298Z,98809.88
2023-01-17T03:45:50.196Z,98807.31
2023-01-17T03:48:16.656Z,98814.06
2023-01-17T03:50:43.163Z,98820.00
2023-01-17T03:53:09.518Z,98819.19
2023-01-17T03:55:35.875Z,98820.13
2023-01-17T03:58:02.269Z,98822.69
2023-01-17T04:00:28.795Z,98824.41
2023-01-17T04:02:55.203Z,98830.38
2023-01-17T04:05:21.610Z,98832.09
2023-01-17T04:07:48.048Z,98834.59
2023-01-17T04:10:14.879Z,98830.41
2023-01-17T04:12:41.617Z,98840.59
2023-01-17T04:15:08.149Z,98837.38
2023-01-17T04:17:35.254Z,98850.97
2023-01-17T04:20:01.829Z,98854.47
2023-01-17T04:22:28.477Z,98859.56
2023-01-17T04:24:54.886Z,98857.13
2023-01-17T04:27:21.299Z,98845.41
2023-01-17T04:29:47.791Z,98849.59
2023-01-17T04:32:14.824Z,98849.63
2023-01-17T04:34:41.479Z,98847.06
2023-01-17T04:37:07.915Z,98842.91
2023-01-17T04:39:34.672Z,98833.63
2023-01-17T04:42:01.128Z,98840.34
2023-01-17T04:44:27.525Z,98840.38
2023-01-17T04:46:53.998Z,98832.00
2023-01-17T04:49:20.464Z,98831.97
2023-01-17T04:51:46.887Z,98829.44
2023-01-17T04:54:13.346Z,98831.09
2023-01-17T04:56:39.747Z,98833.63
2023-01-17T04:59:06.203Z,98830.25
2023-01-17T05:01:32.684Z,98834.44
2023-01-17T05:03:59.127Z,98834.47
2023-01-17T05:06:25.547Z,98839.56
2023-01-17T05:08:52.002Z,98843.81
2023-01-17T05:11:18.684Z,98850.66
2023-01-17T05:13:47.970Z,98844.84
2023-01-17T05:16:17.118Z,98851.56
2023-01-17T05:18:43.474Z,98855.00
2023-01-17T05:21:10.054Z,98849.25
2023-01-17T05:23:36.558Z,98861.91
2023-01-17T05:26:02.920Z,98861.16
2023-01-17T05:28:29.361Z,98866.19
2023-01-17T05:30:56.108Z,98861.16
2023-01-17T05:33:22.558Z,98855.31
2023-01-17T05:35:48.972Z,98855.34
2023-01-17T05:38:15.449Z,98862.09
2023-01-17T05:40:42.178Z,98863.78
2023-01-17T05:43:08.869Z,98859.56
2023-01-17T05:45:35.674Z,98866.31
2023-01-17T05:48:03.054Z,98868.00
2023-01-17T05:50:34.109Z,98873.09
2023-01-17T05:53:03.759Z,98876.47
2023-01-17T05:55:31.695Z,98878.22
2023-01-17T05:57:58.945Z,98885.75
2023-01-17T06:00:25.655Z,98889.94
2023-01-17T06:02:56.521Z,98884.06
2023-01-17T06:05:24.185Z,98884.84
2023-01-17T06:07:50.883Z,98884.00
2023-01-17T06:10:19.341Z,98895.66
2023-01-17T06:12:46.284Z,98905.63
2023-01-17T06:15:14.225Z,98907.25
2023-01-17T06:17:40.996Z,98916.41
2023-01-17T06:20:09.271Z,98914.63
2023-01-17T06:22:35.876Z,98922.97
2023-01-17T06:25:02.280Z,98926.28
2023-01-17T06:27:28.882Z,98925.38
2023-01-17T06:29:55.401Z,98931.22
2023-01-17T06:32:21.874Z,98927.84
2023-01-17T06:34:48.224Z,98909.38
2023-01-17T06:37:14.629Z,98911.03
2023-01-17T06:39:41.143Z,98912.75
2023-01-17T06:42:07.566Z,98903.53
2023-01-17T06:44:34.057Z,98907.75
2023-01-17T06:47:00.476Z,98905.22
2023-01-17T06:49:27.085Z,98901.94
2023-01-17T06:51:53.540Z,98912.84
2023-01-17T06:54:20.056Z,98918.75
2023-01-17T06:56:46.415Z,98918.00
2023-01-17T06:59:12.958Z,98916.31
2023-01-17T07:01:39.815Z,98915.50
2023-01-17T07:04:06.389Z,98923.09
2023-01-17T07:06:34.974Z,98922.34
2023-01-17T07:09:01.447Z,98918.22
2023-01-17T07:11:27.857Z,98920.78
2023-01-17T07:13:54.301Z,98923.34
2023-01-17T07:16:20.996Z,98923.38
2023-01-17T07:18:47.413Z,98920.13
2023-01-17T07:21:15.216Z,98921.78
2023-01-17T07:23:41.941Z,98920.16
2023-01-17T07:26:08.397Z,98929.41
2023-01-17T07:28:35.053Z,98925.22
2023-01-17T07:31:08.463Z,98926.94
2023-01-17T07:33:35.665Z,98924.44
2023-01-17T07:36:09.319Z,98926.09
2023-01-17T07:38:36.225Z,98923.66
2023-01-17T07:41:03.161Z,98919.47
2023-01-17T07:43:29.659Z,98926.22
2023-01-17T07:45:56.300Z,98924.53
2023-01-17T07:48:24.501Z,98931.28
2023-01-17T07:50:56.182Z,98938.06
2023-01-17T07:53:33.616Z,98933.84
2023-01-17T07:56:02.583Z,98937.19
2023-01-17T07:58:28.937Z,98934.72
2023-01-17T08:01:03.537Z,98938.13
2023-01-17T08:03:35.780Z,98939.84
2023-01-17T08:06:02.894Z,98933.94
2023-01-17T08:08:29.525Z,98929.69
2023-01-17T08:10:56.163Z,98938.09
2023-01-17T08:13:22.903Z,98936.41
2023-01-17T08:15:49.976Z,98939.75
2023-01-17T08:18:17.615Z,98938.94
2023-01-17T08:20:44.945Z,98940.59
2023-01-17T08:23:11.861Z,98945.56
2023-01-17T08:25:38.951Z,98948.09
2023-01-17T08:28:05.581Z,98948.88
2023-01-17T08:30:32.175Z,98954.72
2023-01-17T08:32:58.579Z,98949.72
2023-01-17T08:35:25.033Z,98954.75
2023-01-17T08:37:54.648Z,98960.59
2023-01-17T08:40:21.527Z,98963.09
2023-01-17T08:42:55.737Z,98957.16
2023-01-17T08:45:22.177Z,98964.66
2023-01-17T08:47:48.544Z,98966.28
2023-01-17T08:50:15.581Z,98971.38
2023-01-17T08:52:41.942Z,98966.31
2023-01-17T08:55:10.230Z,98973.09
2023-01-17T08:57:36.602Z,98971.41
2023-01-17T09:00:03.429Z,98972.25
2023-01-17T09:02:29.866Z,98974.78
2023-01-17T09:04:56.237Z,98977.28
2023-01-17T09:07:24.305Z,98982.28
2023-01-17T09:09:52.643Z,98977.25
2023-01-17T09:12:20.180Z,98989.72
2023-01-17T09:14:46.682Z,98990.56
2023-01-17T09:17:14.566Z,98979.63
2023-01-17T09:19:46.548Z,98995.59
2023-01-17T09:22:12.983Z,98994.84
2023-01-17T09:24:39.575Z,98999.00
2023-01-17T09:27:06.922Z,98992.22
2023-01-17T09:29:33.509Z,99003.81
2023-01-17T09:32:00.913Z,99001.31
2023-01-17T09:34:27.339Z,99010.53
2023-01-17T09:36:53.775Z,99002.06
2023-01-17T09:39:20.310Z,99000.31
2023-01-17T09:42:17.383Z,99010.31
2023-01-17T09:44:46.025Z,99011.94
2023-01-17T09:47:32.936Z,99010.19
2023-01-17T09:50:27.145Z,99011.00
2023-01-17T09:53:01.215Z,99015.06
2023-01-17T09:55:43.896Z,99020.91
2023-01-17T09:58:18.805Z,99017.41
2023-01-17T10:01:22.728Z,99025.69
2023-01-17T10:04:18.235Z,99030.69
2023-01-17T10:07:11.385Z,99023.09
2023-01-17T10:09:56.578Z,99026.38
2023-01-17T10:13:01.991Z,99023.94
2023-01-17T10:15:31.327Z,99027.97
2023-01-17T10:18:28.915Z,99027.97
2023-01-17T10:20:56.232Z,99026.16
2023-01-17T10:23:46.443Z,99031.91
2023-01-17T10:26:23.672Z,99030.09
2023-01-17T10:28:53.060Z,99024.03
2023-01-17T10:31:23.645Z,99020.59
2023-01-17T10:33:52.755Z,99026.59
2023-01-17T10:36:23.400Z,99025.72
2023-01-17T10:39:00.728Z,99027.31
2023-01-17T10:41:36.741Z,99030.59
2023-01-17T10:44:27.391Z,99032.25
2023-01-17T10:47:18.533Z,99033.84
2023-01-17T10:49:49.002Z,99029.56
2023-01-17T10:52:23.621Z,99038.69
2023-01-17T10:55:17.924Z,99040.91
2023-01-17T10:57:47.249Z,99036.50
2023-01-17T11:00:39.858Z,99036.31
2023-01-17T11:03:06.774Z,99029.44
2023-01-17T11:05:34.159Z,99037.94
2023-01-17T11:08:07.787Z,99040.50
2023-01-17T11:10:47.126Z,99042.28
2023-01-17T11:13:19.284Z,99040.53
2023-01-17T11:15:49.879Z,99039.56
2023-01-17T11:18:19.593Z,99035.41
2023-01-17T11:20:46.304Z,99041.41
2023-01-17T11:23:15.635Z,99032.28
2023-01-17T11:25:55.448Z,99029.03
2023-01-17T11:28:26.182Z,99026.63
2023-01-17T11:30:55.912Z,99035.09
2023-01-17T11:33:56.527Z,99025.06
2023-01-17T11:36:30.950Z,99029.03
2023-01-17T11:39:03.586Z,99026.44
2023-01-17T11:41:39.076Z,99022.19
2023-01-17T11:44:29.119Z,99028.81
2023-01-17T11:47:08.579Z,99019.34
2023-01-17T11:49:35.695Z,99018.94
2023-01-17T11:52:09.075Z,99025.84
2023-01-17T11:54:39.611Z,99030.13
2023-01-17T11:57:16.561Z,99019.03
2023-01-17T11:59:44.189Z,99023.88
2023-01-17T12:02:57.017Z,99022.78
2023-01-17T12:05:51.464Z,99030.03
2023-01-17T12:08:23.987Z,99020.56
2023-01-17T12:10:53.288Z,99019.47
2023-01-17T12:13:49.931Z,99010.03
2023-01-17T12:16:45.373Z,99011.41
2023-01-17T12:19:41.160Z,99010.22
2023-01-17T12:22:29.708Z,99006.56
2023-01-17T12:25:06.965Z,99006.25
2023-01-17T12:27:55.558Z,99012.69
2023-01-17T12:30:30.721Z,98993.94
2023-01-17T12:33:21.947Z,98996.97
2023-01-17T12:36:02.195Z,98993.41
2023-01-17T12:38:35.605Z,98990.59
2023-01-17T12:41:07.090Z,98985.53
2023-01-17T12:43:37.283Z,98990.50
2023-01-17T12:46:28.236Z,98983.75
2023-01-17T12:49:02.892Z,98977.78
2023-01-17T12:51:41.211Z,98975.97
2023-01-17T12:54:28.826Z,98981.03
2023-01-17T12:57:02.405Z,98982.75
2023-01-17T12:59:40.353Z,98983.38
2023-01-17T13:02:36.106Z,98983.22
2023-01-17T13:05:18.429Z,98981.59
2023-01-17T13:08:01.900Z,98990.69
2023-01-17T13:10:35.762Z,98981.19
2023-01-17T13:13:16.555Z,98976.94
2023-01-17T13:15:43.221Z,98985.16
2023-01-17T13:18:15.496Z,98982.78
2023-01-17T13:20:47.874Z,98986.00
2023-01-17T13:23:29.939Z,98982.34
2023-01-17T13:25:58.894Z,98994.13
2023-01-17T13:28:28.087Z,98987.16
2023-01-17T13:31:16.057Z,98988.78
2023-01-17T13:34:14.779Z,98996.38
2023-01-17T13:36:57.681Z,98991.31
2023-01-17T13:39:29.584Z,98991.47
2023-01-17T13:42:11.655Z,98992.53
2023-01-17T13:44:38.130Z,98985.22
2023-01-17T13:47:06.652Z,98988.72
2023-01-17T13:49:43.374Z,98988.91
2023-01-17T13:52:33.859Z,98996.72
2023-01-17T13:55:07.041Z,98996.84
2023-01-17T13:57:41.889Z,99001.19
2023-01-17T14:00:21.713Z,99004.75
2023-01-17T14:02:52.637Z,99004.88
2023-01-17T14:05:22.067Z,99015.00
2023-01-17T14:08:05.079Z,99009.88
2023-01-17T14:10:46.160Z,99021.03
2023-01-17T14:13:36.274Z,99021.19
2023-01-17T14:16:22.821Z,99013.69
2023-01-17T14:18:49.869Z,99018.81
2023-01-17T14:21:28.463Z,99023.94
2023-01-17T14:24:10.396Z,99024.94
2023-01-17T14:26:43.789Z,99035.06
2023-01-17T14:29:46.386Z,99028.44
2023-01-17T14:32:16.375Z,99021.84
2023-01-17T14:34:44.870Z,99020.38
2023-01-17T14:37:40.685Z,99024.63
2023-01-17T14:40:30.395Z,99024.81
2023-01-17T14:43:15.693Z,99024.06
2023-01-17T14:45:43.526Z,99022.34
2023-01-17T14:48:17.853Z,99017.34
2023-01-17T14:50:46.206Z,99020.75
2023-01-17T14:53:12.636Z,99023.44
2023-01-17T14:55:48.064Z,99025.19
2023-01-17T14:58:19.159Z,99016.06
2023-01-17T15:00:46.513Z,99020.38
2023-01-17T15:03:15.746Z,99022.19
2023-01-17T15:05:46.527Z,99033.19
2023-01-17T15:08:15.648Z,99029.06
2023-01-17T15:10:56.205Z,99031.78
2023-01-17T15:13:43.420Z,99036.88
2023-01-17T15:16:31.019Z,99040.31
2023-01-17T15:18:57.849Z,99033.69
2023-01-17T15:21:27.941Z,99043.13
2023-01-17T15:23:57.775Z,99050.81
2023-01-17T15:26:26.861Z,99052.59
2023-01-17T15:29:00.085Z,99055.16
2023-01-17T15:31:40.980Z,99057.72
2023-01-17T15:34:12.110Z,99062.00
2023-01-17T15:36:39.085Z,99058.72
2023-01-17T15:39:18.822Z,99057.28
2023-01-17T15:41:45.200Z,99060.88
2023-01-17T15:44:47.137Z,99061.88
2023-01-17T15:47:33.844Z,99053.66
2023-01-17T15:50:02.532Z,99059.63
2023-01-17T15:52:29.278Z,99059.88
2023-01-17T15:55:12.442Z,99055.94
2023-01-17T15:57:39.627Z,99053.53
2023-01-17T16:00:20.905Z,99057.78
2023-01-17T16:02:55.238Z,99062.06
2023-01-17T16:05:21.896Z,99064.66
2023-01-17T16:08:08.566Z,99065.66
2023-01-17T16:10:37.802Z,99054.97
2023-01-17T16:13:06.202Z,99050.91
2023-01-17T16:15:37.872Z,99061.84
2023-01-17T16:18:10.013Z,99060.25
2023-01-17T16:20:44.271Z,99067.03
2023-01-17T16:23:10.752Z,99058.00
2023-01-17T16:25:37.884Z,99071.66
2023-01-17T16:28:05.463Z,99063.41
2023-01-17T16:30:32.857Z,99069.53
2023-01-17T16:32:59.470Z,99073.94
2023-01-17T16:35:29.983Z,99071.50
2023-01-17T16:38:05.350Z,99072.41
2023-01-17T16:40:37.950Z,99074.16
2023-01-17T16:43:04.370Z,99075.13
2023-01-17T16:45:30.837Z,99081.94
2023-01-17T16:47:57.242Z,99080.31
2023-01-17T16:50:24.908Z,99087.09
2023-01-17T16:52:52.978Z,99088.91
2023-01-17T16:55:22.220Z,99089.81
2023-01-17T16:57:49.733Z,99088.13
2023-01-17T17:00:17.341Z,99093.97
2023-01-17T17:02:44.001Z,99096.56
2023-01-17T17:05:10.961Z,99100.78
2023-01-17T17:07:44.110Z,99106.69
2023-01-17T17:10:11.606Z,99102.63
2023-01-17T17:12:38.058Z,99108.63
2023-01-17T17:15:05.426Z,99110.38
2023-01-17T17:17:42.246Z,99118.84
2023-01-17T17:20:14.033Z,99116.38
2023-01-17T17:22:50.306Z,99122.31
2023-01-17T17:25:17.382Z,99119.84
2023-01-17T17:27:43.877Z,99124.84
2023-01-17T17:30:11.132Z,99124.91
2023-01-17T17:32:37.591Z,99124.09
2023-01-17T17:35:04.510Z,99128.31
2023-01-17T17:37:33.252Z,99138.38
2023-01-17T17:39:59.735Z,99135.91
2023-01-17T17:42:26.271Z,99139.22
2023-01-17T17:44:52.760Z,99140.88
2023-01-17T17:47:19.378Z,99148.41
2023-01-17T17:49:46.952Z,99147.56
2023-01-17T17:52:13.435Z,99155.91
2023-01-17T17:54:42.085Z,99160.13
2023-01-17T17:57:09.387Z,99166.06
2023-01-17T17:59:35.847Z,99168.56
2023-01-17T18:02:02.358Z,99166.88
2023-01-17T18:04:28.890Z,99166.03
2023-01-17T18:06:57.326Z,99175.22
2023-01-17T18:09:24.542Z,99170.22
2023-01-17T18:11:50.985Z,99176.09
2023-01-17T18:14:20.846Z,99186.94
2023-01-17T18:16:47.823Z,99186.09
2023-01-17T18:19:17.569Z,99193.69
2023-01-17T18:21:44.308Z,99187.81
2023-01-17T18:24:14.173Z,99198.72
2023-01-17T18:26:45.119Z,99207.97
2023-01-17T18:29:16.421Z,99208.00
2023-01-17T18:31:43.517Z,99217.19
2023-01-17T18:34:13.118Z,99221.34
2023-01-17T18:36:39.704Z,99228.91
2023-01-17T18:39:27.257Z,99226.41
2023-01-17T18:41:54.543Z,99236.47
2023-01-17T18:44:23.207Z,99232.28
2023-01-17T18:46:59.175Z,99238.97
2023-01-17T18:49:25.562Z,99240.66
2023-01-17T18:51:52.001Z,99238.13
2023-01-17T18:54:19.919Z,99237.31
2023-01-17T18:56:46.835Z,99244.00
2023-01-17T18:59:14.185Z,99242.31
2023-01-17T19:01:44.561Z,99237.31
2023-01-17T19:04:13.899Z,99239.84
2023-01-17T19:06:42.864Z,99243.19
2023-01-17T19:09:11.359Z,99239.00
2023-01-17T19:11:38.045Z,99245.69
2023-01-17T19:14:05.787Z,99244.88
2023-01-17T19:16:35.918Z,99255.72
2023-01-17T19:19:08.195Z,99251.50
2023-01-17T19:21:35.179Z,99251.50
2023-01-17T19:24:02.436Z,99245.63
2023-01-17T19:26:29.104Z,99251.50
2023-01-17T19:28:58.654Z,99254.88
2023-01-17T19:31:28.217Z,99262.47
2023-01-17T19:33:59.643Z,99258.25
2023-01-17T19:36:27.291Z,99262.44
2023-01-17T19:39:04.019Z,99260.75
2023-01-17T19:41:31.855Z,99260.75
2023-01-17T19:44:00.470Z,99268.28
2023-01-17T19:46:27.832Z,99264.91
2023-01-17T19:48:55.891Z,99274.13
2023-01-17T19:51:22.975Z,99269.91
2023-01-17T19:53:49.380Z,99275.78
2023-01-17T19:56:21.650Z,99274.91
2023-01-17T19:58:48.356Z,99278.22
2023-01-17T20:01:16.263Z,99277.38
2023-01-17T20:03:44.273Z,99274.06
2023-01-17T20:06:15.048Z,99272.41
2023-01-17T20:08:41.551Z,99269.91
2023-01-17T20:11:11.444Z,99279.09
2023-01-17T20:13:37.905Z,99270.75
2023-01-17T20:16:06.240Z,99271.56
2023-01-17T20:18:34.291Z,99277.44
2023-01-17T20:21:08.090Z,99275.75
2023-01-17T20:23:39.208Z,99269.06
2023-01-17T20:26:06.269Z,99283.31
2023-01-17T20:28:34.915Z,99285.00
2023-01-17T20:31:09.531Z,99279.97
2023-01-17T20:33:36.525Z,99274.06
2023-01-17T20:36:10.715Z,99282.50
2023-01-17T20:38:44.628Z,99275.81
2023-01-17T20:41:22.511Z,99274.13
2023-01-17T20:43:51.444Z,99281.69
2023-01-17T20:46:19.089Z,99284.22
2023-01-17T20:48:47.543Z,99284.22
2023-01-17T20:51:15.110Z,99281.72
2023-01-17T20:53:43.568Z,99290.94
2023-01-17T20:56:14.451Z,99292.63
2023-01-17T20:58:41.293Z,99289.28
2023-01-17T21:01:10.733Z,99291.81
2023-01-17T21:03:38.211Z,99293.50
2023-01-17T21:06:10.442Z,99288.50
2023-01-17T21:08:38.982Z,99291.84
2023-01-17T21:11:06.492Z,99293.56
2023-01-17T21:13:33.139Z,99291.88
2023-01-17T21:16:00.053Z,99300.25
2023-01-17T21:18:29.422Z,99301.97
2023-01-17T21:21:05.686Z,99298.63
2023-01-17T21:23:32.208Z,99300.31
2023-01-17T21:25:58.563Z,99306.19
2023-01-17T21:28:26.894Z,99307.03
2023-01-17T21:30:53.805Z,99305.31
2023-01-17T21:33:22.086Z,99305.31
2023-01-17T21:35:48.801Z,99299.47
2023-01-17T21:38:15.534Z,99301.19
2023-01-17T21:40:43.597Z,99308.72
2023-01-17T21:43:10.392Z,99304.53
2023-01-17T21:45:41.073Z,99300.38
2023-01-17T21:48:12.196Z,99302.09
2023-01-17T21:50:39.001Z,99311.31
2023-01-17T21:53:05.433Z,99299.59
2023-01-17T21:55:50.282Z,99297.09
2023-01-17T21:58:36.016Z,99298.78
2023-01-17T22:01:17.772Z,99302.13
2023-01-17T22:03:48.447Z,99302.97
2023-01-17T22:06:14.878Z,99313.00
2023-01-17T22:08:41.256Z,99304.66
2023-01-17T22:11:13.106Z,99313.91
2023-01-17T22:13:41.378Z,99313.88
2023-01-17T22:16:10.825Z,99312.22
2023-01-17T22:18:39.038Z,99313.09
2023-01-17T22:21:14.069Z,99320.66
2023-01-17T22:23:45.653Z,99314.00
2023-01-17T22:26:15.171Z,99321.53
2023-01-17T22:28:41.747Z,99324.91
2023-01-17T22:31:23.331Z,99332.41
2023-01-17T22:33:55.568Z,99331.56
2023-01-17T22:36:22.955Z,99333.28
2023-01-17T22:38:49.859Z,99335.00
2023-01-17T22:41:21.616Z,99335.88
2023-01-17T22:43:51.001Z,99334.19
2023-01-17T22:46:26.817Z,99339.25
2023-01-17T22:48:55.463Z,99335.06
2023-01-17T22:51:23.826Z,99336.72
2023-01-17T22:53:52.734Z,99338.44
2023-01-17T22:56:21.404Z,99337.63
2023-01-17T22:58:50.954Z,99341.81
2023-01-17T23:01:26.091Z,99336.78
2023-01-17T23:03:58.401Z,99330.94
2023-01-17T23:06:35.944Z,99334.28
2023-01-17T23:09:06.193Z,99329.28
2023-01-17T23:11:41.037Z,99326.81
2023-01-17T23:14:07.677Z,99334.31
2023-01-17T23:16:52.705Z,99336.81
2023-01-17T23:19:22.204Z,99330.97
2023-01-17T23:22:12.796Z,99334.31
2023-01-17T23:24:45.298Z,99331.81
2023-01-17T23:27:33.439Z,99325.97
2023-01-17T23:30:00.350Z,99329.34
2023-01-17T23:32:27.479Z,99332.72
2023-01-17T23:34:54.259Z,99331.91
2023-01-17T23:37:20.690Z,99337.75
2023-01-17T23:39:47.244Z,99338.59
2023-01-17T23:42:31.989Z,99344.50
2023-01-17T23:44:58.451Z,99336.13
2023-01-17T23:47:24.935Z,99336.13
2023-01-17T23:49:51.518Z,99337.81
2023-01-17T23:52:17.938Z,99345.34
2023-01-17T23:54:44.310Z,99337.81
2023-01-17T23:57:10.770Z,99345.34
2023-01-17T23:59:37.213Z,99344.50
